UAE7Y OMDB-FIMP
Flight info
| Callsign | UAE7Y |
|---|---|
| Flight time | N/A |
| Altitude | 36000 |
| Route | ANVIX7F ANVIX R401 GIDIS G783 UKRAG/N0500F370 L710 DEDSO/N0496F360 R401 DAPAB/N0498F380 R401 SUHIL UM314 UDLET/N0492F390 UM314 PRA/N0489F380 UM313 ALRAN UT400 DUNRI DUNRI1E |
| Aircraft | A388/J-SADE2E3FGHIJ3J4J5M1RWXY/LB1D1 |
Departure
| Time | N/A |
|---|---|
| Airport | Dubai International Airport (OMDB) |
Arrival
| Time | 2026-04-28 16:10 |
|---|---|
| Airport | Sir Seewoosagur Ramgoolam International Airport (FIMP) |
| Time | Latitude | Longitude | Altitude | Speed | Heading |
|---|---|---|---|---|---|
| 2026-04-28 15:27 | -16.05406 | 56.92029 | 38928 ft | 447 kts | 175° |
| 2026-04-28 15:27 | -16.08532 | 56.92319 | 38927 ft | 447 kts | 175° |
| 2026-04-28 15:28 | -16.14725 | 56.92894 | 38922 ft | 447 kts | 175° |
| 2026-04-28 15:28 | -16.20920 | 56.93470 | 38921 ft | 446 kts | 175° |
| 2026-04-28 15:29 | -16.27147 | 56.94050 | 38919 ft | 446 kts | 175° |
| 2026-04-28 15:29 | -16.33332 | 56.94625 | 38918 ft | 446 kts | 175° |
| 2026-04-28 15:30 | -16.38471 | 56.95104 | 38918 ft | 446 kts | 175° |
| 2026-04-28 15:30 | -16.44657 | 56.95681 | 38923 ft | 446 kts | 175° |
| 2026-04-28 15:31 | -16.50845 | 56.96258 | 38933 ft | 447 kts | 175° |
| 2026-04-28 15:31 | -16.57038 | 56.96836 | 38929 ft | 447 kts | 175° |
| 2026-04-28 15:32 | -16.63234 | 56.97414 | 38931 ft | 447 kts | 175° |
| 2026-04-28 15:32 | -16.69433 | 56.97993 | 38933 ft | 447 kts | 175° |
| 2026-04-28 15:33 | -16.75674 | 56.98576 | 38933 ft | 447 kts | 175° |
| 2026-04-28 15:33 | -16.81877 | 56.99156 | 38946 ft | 447 kts | 175° |
| 2026-04-28 15:34 | -16.88074 | 56.99735 | 38942 ft | 446 kts | 175° |
| 2026-04-28 15:34 | -16.94258 | 57.00314 | 38938 ft | 446 kts | 175° |
| 2026-04-28 15:35 | -17.00440 | 57.00893 | 38934 ft | 445 kts | 175° |
| 2026-04-28 15:35 | -17.09692 | 57.01761 | 38945 ft | 445 kts | 175° |
| 2026-04-28 15:36 | -17.15856 | 57.02339 | 38931 ft | 444 kts | 175° |
| 2026-04-28 15:36 | -17.22023 | 57.02918 | 38935 ft | 444 kts | 175° |
| 2026-04-28 15:37 | -17.28153 | 57.03494 | 38936 ft | 444 kts | 175° |
| 2026-04-28 15:37 | -17.34313 | 57.04073 | 38929 ft | 444 kts | 175° |
| 2026-04-28 15:38 | -17.40468 | 57.04652 | 38927 ft | 444 kts | 175° |
| 2026-04-28 15:38 | -17.46639 | 57.05232 | 38928 ft | 445 kts | 175° |
| 2026-04-28 15:39 | -17.52810 | 57.05814 | 38933 ft | 445 kts | 175° |
| 2026-04-28 15:39 | -17.59027 | 57.06400 | 38944 ft | 446 kts | 175° |
| 2026-04-28 15:40 | -17.65209 | 57.06983 | 38944 ft | 446 kts | 175° |
| 2026-04-28 15:40 | -17.71394 | 57.07567 | 38958 ft | 446 kts | 175° |
| 2026-04-28 15:41 | -17.77572 | 57.08150 | 38949 ft | 445 kts | 175° |
| 2026-04-28 15:41 | -17.83747 | 57.08734 | 38941 ft | 445 kts | 175° |
| 2026-04-28 15:42 | -17.89864 | 57.09312 | 38936 ft | 444 kts | 175° |
| 2026-04-28 15:42 | -17.96011 | 57.09894 | 38939 ft | 443 kts | 175° |
| 2026-04-28 15:43 | -18.02163 | 57.10434 | 38939 ft | 443 kts | 176° |
| 2026-04-28 15:43 | -18.08315 | 57.10900 | 38930 ft | 443 kts | 176° |
| 2026-04-28 15:44 | -18.14471 | 57.11377 | 38942 ft | 444 kts | 176° |
| 2026-04-28 15:44 | -18.20635 | 57.11863 | 38943 ft | 444 kts | 176° |
| 2026-04-28 15:45 | -18.26798 | 57.12351 | 38941 ft | 444 kts | 176° |
| 2026-04-28 15:45 | -18.32966 | 57.12839 | 38942 ft | 444 kts | 176° |
| 2026-04-28 15:46 | -18.39086 | 57.13324 | 38947 ft | 444 kts | 176° |
| 2026-04-28 15:46 | -18.45253 | 57.13813 | 38947 ft | 444 kts | 176° |
| 2026-04-28 15:47 | -18.51405 | 57.14300 | 38643 ft | 441 kts | 176° |
| 2026-04-28 15:47 | -18.54474 | 57.14543 | 37690 ft | 446 kts | 176° |
| 2026-04-28 15:47 | -18.57602 | 57.14790 | 36368 ft | 457 kts | 176° |
| 2026-04-28 15:48 | -18.60818 | 57.15045 | 35165 ft | 467 kts | 176° |
| 2026-04-28 15:48 | -18.64074 | 57.15304 | 34256 ft | 469 kts | 175° |
| 2026-04-28 15:48 | -18.67315 | 57.15562 | 33553 ft | 465 kts | 175° |
| 2026-04-28 15:48 | -18.70514 | 57.15817 | 33029 ft | 457 kts | 176° |
| 2026-04-28 15:49 | -18.73657 | 57.16068 | 32518 ft | 450 kts | 176° |
| 2026-04-28 15:49 | -18.76764 | 57.16315 | 32052 ft | 446 kts | 176° |
| 2026-04-28 15:49 | -18.79865 | 57.16562 | 31579 ft | 447 kts | 176° |
| 2026-04-28 15:49 | -18.82971 | 57.16809 | 31202 ft | 449 kts | 176° |
| 2026-04-28 15:50 | -18.86088 | 57.17057 | 30828 ft | 449 kts | 176° |
| 2026-04-28 15:50 | -18.89203 | 57.17305 | 30473 ft | 448 kts | 176° |
| 2026-04-28 15:50 | -18.92312 | 57.17553 | 30105 ft | 447 kts | 176° |
| 2026-04-28 15:50 | -18.94367 | 57.17717 | 29835 ft | 447 kts | 176° |
| 2026-04-28 15:51 | -18.98471 | 57.18044 | 29282 ft | 444 kts | 176° |
| 2026-04-28 15:51 | -19.01546 | 57.18290 | 28857 ft | 442 kts | 176° |
| 2026-04-28 15:51 | -19.04604 | 57.18534 | 28444 ft | 440 kts | 176° |
| 2026-04-28 15:51 | -19.07656 | 57.18777 | 28028 ft | 439 kts | 176° |
| 2026-04-28 15:52 | -19.10698 | 57.19020 | 27636 ft | 437 kts | 177° |
| 2026-04-28 15:52 | -19.13727 | 57.19262 | 27237 ft | 436 kts | 177° |
| 2026-04-28 15:52 | -19.16743 | 57.19503 | 26848 ft | 434 kts | 177° |
| 2026-04-28 15:52 | -19.19745 | 57.19743 | 26469 ft | 432 kts | 177° |
| 2026-04-28 15:53 | -19.22740 | 57.19983 | 26089 ft | 431 kts | 177° |
| 2026-04-28 15:53 | -19.25732 | 57.20223 | 25715 ft | 430 kts | 177° |
| 2026-04-28 15:53 | -19.28710 | 57.20461 | 25337 ft | 429 kts | 177° |
| 2026-04-28 15:53 | -19.31681 | 57.20699 | 24981 ft | 428 kts | 177° |
| 2026-04-28 15:54 | -19.34644 | 57.20936 | 24619 ft | 427 kts | 177° |
| 2026-04-28 15:54 | -19.37603 | 57.21173 | 24265 ft | 426 kts | 177° |
| 2026-04-28 15:54 | -19.40558 | 57.21411 | 23918 ft | 425 kts | 177° |
| 2026-04-28 15:54 | -19.43497 | 57.21646 | 23568 ft | 424 kts | 177° |
| 2026-04-28 15:55 | -19.46449 | 57.21884 | 23153 ft | 422 kts | 177° |
| 2026-04-28 15:55 | -19.49370 | 57.22118 | 22605 ft | 420 kts | 177° |
| 2026-04-28 15:55 | -19.52269 | 57.22351 | 22035 ft | 415 kts | 177° |
| 2026-04-28 15:55 | -19.55132 | 57.22581 | 21500 ft | 410 kts | 177° |
| 2026-04-28 15:56 | -19.57968 | 57.22809 | 20954 ft | 406 kts | 177° |
| 2026-04-28 15:56 | -19.60771 | 57.23035 | 20428 ft | 402 kts | 177° |
| 2026-04-28 15:56 | -19.63546 | 57.23258 | 19905 ft | 398 kts | 177° |
| 2026-04-28 15:56 | -19.66295 | 57.23479 | 19399 ft | 394 kts | 177° |
| 2026-04-28 15:57 | -19.69015 | 57.23698 | 18901 ft | 390 kts | 177° |
| 2026-04-28 15:57 | -19.71711 | 57.23916 | 18395 ft | 387 kts | 177° |
| 2026-04-28 15:57 | -19.74385 | 57.24131 | 17870 ft | 383 kts | 176° |
| 2026-04-28 15:57 | -19.77032 | 57.24343 | 17312 ft | 381 kts | 176° |
| 2026-04-28 15:58 | -19.79661 | 57.24556 | 16763 ft | 378 kts | 177° |
| 2026-04-28 15:58 | -19.82276 | 57.24766 | 16218 ft | 375 kts | 176° |
| 2026-04-28 15:58 | -19.84869 | 57.24975 | 15692 ft | 372 kts | 176° |
| 2026-04-28 15:58 | -19.87445 | 57.25183 | 15182 ft | 370 kts | 176° |
| 2026-04-28 15:59 | -19.90000 | 57.25389 | 14665 ft | 367 kts | 176° |
| 2026-04-28 15:59 | -19.91681 | 57.25525 | 14321 ft | 365 kts | 176° |
| 2026-04-28 15:59 | -19.95055 | 57.25797 | 13647 ft | 362 kts | 175° |
| 2026-04-28 15:59 | -19.97554 | 57.25999 | 13107 ft | 359 kts | 175° |
| 2026-04-28 16:00 | -20.00037 | 57.26200 | 12538 ft | 357 kts | 175° |
| 2026-04-28 16:00 | -20.02520 | 57.26401 | 12014 ft | 357 kts | 175° |
| 2026-04-28 16:00 | -20.04997 | 57.26602 | 11485 ft | 356 kts | 175° |
| 2026-04-28 16:00 | -20.07466 | 57.26801 | 10929 ft | 355 kts | 175° |
| 2026-04-28 16:01 | -20.09920 | 57.27000 | 10404 ft | 353 kts | 175° |
| 2026-04-28 16:01 | -20.12366 | 57.27198 | 9873 ft | 351 kts | 175° |
| 2026-04-28 16:01 | -20.14828 | 57.27397 | 9280 ft | 349 kts | 175° |
| 2026-04-28 16:01 | -20.17237 | 57.27594 | 8731 ft | 346 kts | 174° |
| 2026-04-28 16:02 | -20.19543 | 57.28220 | 8155 ft | 342 kts | 153° |
| 2026-04-28 16:02 | -20.21436 | 57.29687 | 7611 ft | 336 kts | 131° |
| 2026-04-28 16:02 | -20.22804 | 57.31673 | 7034 ft | 330 kts | 120° |
| 2026-04-28 16:02 | -20.23974 | 57.33768 | 6484 ft | 321 kts | 117° |
| 2026-04-28 16:03 | -20.25100 | 57.35783 | 5960 ft | 311 kts | 120° |
| 2026-04-28 16:03 | -20.26225 | 57.37698 | 5519 ft | 299 kts | 120° |
| 2026-04-28 16:03 | -20.26981 | 57.38942 | 5216 ft | 293 kts | 121° |
| 2026-04-28 16:03 | -20.28087 | 57.40722 | 4796 ft | 284 kts | 121° |
| 2026-04-28 16:04 | -20.29185 | 57.42467 | 4347 ft | 276 kts | 121° |
| 2026-04-28 16:04 | -20.30241 | 57.44136 | 4039 ft | 269 kts | 121° |
| 2026-04-28 16:04 | -20.31251 | 57.45737 | 3958 ft | 250 kts | 121° |
| 2026-04-28 16:04 | -20.32277 | 57.47366 | 3967 ft | 286 kts | 121° |
| 2026-04-28 16:05 | -20.33379 | 57.49116 | 3940 ft | 276 kts | 121° |
| 2026-04-28 16:05 | -20.34398 | 57.50734 | 3957 ft | 250 kts | 120° |
| 2026-04-28 16:05 | -20.35257 | 57.52263 | 3762 ft | 233 kts | 116° |
| 2026-04-28 16:05 | -20.36012 | 57.53766 | 3407 ft | 222 kts | 114° |
| 2026-04-28 16:06 | -20.36664 | 57.55114 | 3054 ft | 188 kts | 114° |
| 2026-04-28 16:06 | -20.37214 | 57.56259 | 2753 ft | 162 kts | 114° |
| 2026-04-28 16:06 | -20.37693 | 57.57262 | 2505 ft | 146 kts | 114° |
| 2026-04-28 16:06 | -20.38143 | 57.58204 | 2290 ft | 141 kts | 114° |
| 2026-04-28 16:07 | -20.38589 | 57.59127 | 2071 ft | 139 kts | 114° |
| 2026-04-28 16:07 | -20.39036 | 57.60064 | 1865 ft | 140 kts | 111° |
| 2026-04-28 16:07 | -20.39929 | 57.61918 | 1420 ft | 140 kts | 112° |
| 2026-04-28 16:08 | -20.40361 | 57.62830 | 1227 ft | 140 kts | 110° |
| 2026-04-28 16:08 | -20.40813 | 57.63756 | 1019 ft | 138 kts | 114° |
| 2026-04-28 16:08 | -20.41255 | 57.64693 | 811 ft | 143 kts | 113° |
| 2026-04-28 16:09 | -20.42136 | 57.66532 | 374 ft | 140 kts | 117° |
| 2026-04-28 16:09 | -20.42587 | 57.67455 | 209 ft | 137 kts | 117° |
| 2026-04-28 16:09 | -20.42948 | 57.68200 | 194 ft | 86 kts | 117° |
| 2026-04-28 16:10 | -20.43248 | 57.68823 | 173 ft | 34 kts | 120° |
| 2026-04-28 16:10 | -20.43357 | 57.69045 | 159 ft | 34 kts | 117° |
| 2026-04-28 16:10 | -20.43507 | 57.69344 | 141 ft | 11 kts | 145° |
| 2026-04-28 16:11 | -20.43640 | 57.69321 | 149 ft | 5 kts | 239° |
| 2026-04-28 16:11 | -20.43650 | 57.69293 | 153 ft | 2 kts | 263° |
| 2026-04-28 16:12 | -20.43625 | 57.69200 | 162 ft | 16 kts | 295° |
| 2026-04-28 16:12 | -20.43575 | 57.69091 | 170 ft | 16 kts | 297° |
| 2026-04-28 16:13 | -20.43474 | 57.68881 | 178 ft | 18 kts | 297° |
| 2026-04-28 16:13 | -20.43414 | 57.68757 | 180 ft | 19 kts | 297° |
| 2026-04-28 16:13 | -20.43285 | 57.68487 | 184 ft | 22 kts | 297° |
| 2026-04-28 16:14 | -20.43146 | 57.68199 | 199 ft | 22 kts | 297° |
| 2026-04-28 16:14 | -20.43149 | 57.68097 | 194 ft | 7 kts | 263° |
| 2026-04-28 16:15 | -20.43141 | 57.67982 | 194 ft | 3 kts | 231° |
| 2026-04-28 16:15 | -20.43156 | 57.67965 | 189 ft | 3 kts | 227° |
| 2026-04-28 16:15 | -20.43179 | 57.67940 | 197 ft | 5 kts | 224° |
| 2026-04-28 16:16 | -20.43199 | 57.67919 | 200 ft | 0 kts | 225° |